Amberson, Pennsylvania
Current Conditions -  °F | °C
As of 12:53 AM on Tuesday 27 Jan 2015 (Local Time) from KHGR Reporting Station
Light Snow Light Snow  
Wind Chill: 18°   Ceiling: 3600
Heat Index: 25°   Visibility: 9mi
Dew Point: 22°   Wind: 6mph
Humidity: 88%   Direction: 320°NW
Pressure: 29.76"   Gusts: NA
Location:  40.17°N, 77.68°W
Report Text: KHGR 270553Z AUTO 32005KT 9SM -SN OVC036 M04/M06 A2976 RMK AO2 SNB53 SLP097 P0000 60005 T10391056 11039 21044 58005
Loading
Personal Weather Stations






























Interactive Weather Map New forecast layout! Learn more

10-Day Weather Forecast

Advertisements
Track Severe Weather on mobile